Time;durP1;ratioP1;P1;durP2;ratioP2;P2;SDS_P1;SDS_P2;PMS_P1;PMS_P2;Temp;Humidity;BMP_temperature;BMP_pressure;BME280_temperature;BME280_humidity;BME280_pressure;Samples;Min_cycle;Max_cycle;Signal;HPM_P1;HPM_P2
2023/05/21 00:04:18;;;;;;;2.78;1.27;;;;;;;19.54;36.76;101735.34;16106894;19;129989;-37
2023/05/21 00:09:40;;;;;;;1.77;1.25;;;;;;;19.52;36.98;101726.41;16116857;19;131697;-37
2023/05/21 00:15:03;;;;;;;2.70;1.23;;;;;;;19.51;37.14;101733.03;16114148;19;129254;-37
2023/05/21 00:20:25;;;;;;;2.53;1.35;;;;;;;19.50;36.69;101728.56;16115193;19;130693;-37
2023/05/21 00:25:49;;;;;;;1.80;1.13;;;;;;;19.50;37.20;101728.56;16116994;19;131259;-37
2023/05/21 00:31:11;;;;;;;3.70;1.20;;;;;;;19.48;36.94;101726.03;16113813;19;131467;-37
2023/05/21 00:36:33;;;;;;;1.33;1.17;;;;;;;19.48;36.84;101722.38;16113664;19;129361;-48
2023/05/21 00:41:55;;;;;;;1.70;1.10;;;;;;;19.47;36.75;101724.31;16113819;19;129663;-47
2023/05/21 00:47:17;;;;;;;2.40;1.20;;;;;;;19.48;37.14;101725.16;16113904;19;130510;-46
2023/05/21 00:52:44;;;;;;;2.38;1.30;;;;;;;19.47;37.16;101729.00;16112707;19;130136;-46
2023/05/21 00:58:07;;;;;;;2.35;1.33;;;;;;;19.46;37.17;101713.44;16111042;19;131272;-46
2023/05/21 01:03:29;;;;;;;2.22;1.20;;;;;;;19.45;37.15;101709.81;16110587;19;129768;-47
2023/05/21 01:08:51;;;;;;;1.63;1.13;;;;;;;19.44;36.78;101719.22;16108469;19;130919;-47
2023/05/21 01:14:14;;;;;;;2.60;1.27;;;;;;;19.43;36.72;101728.63;16101197;19;130479;-46
2023/05/21 01:19:36;;;;;;;1.30;1.13;;;;;;;19.43;37.17;101719.47;16124889;19;129985;-46
2023/05/21 01:25:01;;;;;;;1.95;1.08;;;;;;;19.43;37.13;101716.69;16125550;19;129972;-47
2023/05/21 01:30:24;;;;;;;1.80;1.10;;;;;;;19.41;37.07;101707.75;16125564;19;130812;-46
2023/05/21 01:36:12;;;;;;;2.05;1.30;;;;;;;19.42;36.82;101703.91;16125001;19;131136;-46
2023/05/21 01:41:40;;;;;;;2.40;1.67;;;;;;;19.39;37.11;101702.41;16125989;19;130610;-46
2023/05/21 01:47:03;;;;;;;2.30;1.48;;;;;;;19.38;36.73;101698.81;16124156;19;130193;-47
2023/05/21 01:52:25;;;;;;;2.65;1.33;;;;;;;19.38;37.07;101697.97;16125344;19;130362;-46
2023/05/21 01:57:47;;;;;;;1.67;1.20;;;;;;;19.36;36.81;101695.41;16122579;19;130255;-47
2023/05/21 02:03:10;;;;;;;3.83;1.40;;;;;;;19.35;36.75;101690.94;16123598;19;134016;-47
2023/05/21 02:08:32;;;;;;;2.40;1.67;;;;;;;19.34;36.75;101700.34;16125902;19;130631;-46
2023/05/21 02:13:56;;;;;;;2.08;1.10;;;;;;;19.34;37.02;101703.13;16124947;19;129926;-46
2023/05/21 02:19:18;;;;;;;2.65;1.40;;;;;;;19.32;36.98;101705.28;16121962;19;129205;-46
2023/05/21 02:24:40;;;;;;;2.38;1.40;;;;;;;19.32;36.73;101693.34;16121472;19;130892;-47
2023/05/21 02:30:04;;;;;;;1.98;1.42;;;;;;;19.31;37.05;101698.06;16121224;19;130607;-47
2023/05/21 02:35:26;;;;;;;1.75;1.30;;;;;;;19.31;37.25;101686.97;16122312;19;131457;-47
2023/05/21 02:40:52;;;;;;;1.67;1.20;;;;;;;19.31;37.25;101697.19;16122076;19;131841;-47
2023/05/21 02:46:14;;;;;;;2.33;1.45;;;;;;;19.29;37.04;101683.56;16121293;19;129126;-47
2023/05/21 02:51:36;;;;;;;2.28;1.48;;;;;;;19.29;36.91;101668.84;16124768;19;130116;-46
2023/05/21 02:56:57;;;;;;;2.97;1.33;;;;;;;19.28;37.28;101676.31;16119326;19;129834;-46
2023/05/21 03:02:19;;;;;;;2.97;1.30;;;;;;;19.28;37.00;101686.56;16121958;19;130271;-47
2023/05/21 03:07:42;;;;;;;3.75;1.40;;;;;;;19.27;37.31;101685.72;16116454;19;129535;-47
2023/05/21 03:13:05;;;;;;;2.60;1.30;;;;;;;19.26;37.30;101681.25;16119528;19;131289;-47
2023/05/21 03:18:30;;;;;;;5.50;1.67;;;;;;;19.25;36.92;101671.22;16123180;19;131755;-46
2023/05/21 03:23:57;;;;;;;3.60;1.67;;;;;;;19.24;37.30;101669.53;16120401;19;129767;-46
2023/05/21 03:29:19;;;;;;;2.15;1.42;;;;;;;19.24;36.96;101669.53;16118013;19;130700;-46
2023/05/21 03:34:41;;;;;;;2.75;1.70;;;;;;;19.24;37.22;101675.09;16117038;19;129612;-47
2023/05/21 03:40:04;;;;;;;2.55;1.60;;;;;;;19.23;36.94;101673.38;16117282;19;130163;-46
2023/05/21 03:45:26;;;;;;;2.70;1.58;;;;;;;19.23;37.37;101667.84;16120335;19;129880;-47
2023/05/21 03:50:48;;;;;;;3.85;1.50;;;;;;;19.21;37.09;101664.44;16121992;19;129818;-46
2023/05/21 03:56:11;;;;;;;1.83;1.67;;;;;;;19.21;37.41;101672.75;16116826;19;130885;-47
2023/05/21 04:01:33;;;;;;;1.83;1.50;;;;;;;19.21;37.48;101670.84;16112268;19;130940;-48
2023/05/21 04:06:55;;;;;;;2.00;1.60;;;;;;;19.19;37.23;101678.53;16116233;19;131093;-46
2023/05/21 04:12:18;;;;;;;2.20;1.70;;;;;;;19.19;37.49;101678.53;16114273;19;129076;-47
2023/05/21 04:17:40;;;;;;;2.20;1.73;;;;;;;19.18;37.00;101678.75;16118495;19;130229;-48
2023/05/21 04:23:02;;;;;;;2.20;1.60;;;;;;;19.17;37.42;101674.28;16114860;19;129770;-47
2023/05/21 04:28:27;;;;;;;1.70;1.50;;;;;;;19.17;37.24;101672.34;16116326;19;133308;-48
2023/05/21 04:33:49;;;;;;;2.60;1.40;;;;;;;19.17;37.55;101685.38;16116515;19;130828;-47
2023/05/21 04:39:11;;;;;;;3.15;1.52;;;;;;;19.16;37.52;101678.16;16115217;19;129833;-47
2023/05/21 04:44:33;;;;;;;3.33;1.65;;;;;;;19.15;37.29;101670.91;16115182;19;130828;-47
2023/05/21 04:49:55;;;;;;;3.47;1.92;;;;;;;19.15;37.21;101676.44;16115021;19;129513;-47
2023/05/21 04:55:17;;;;;;;2.75;1.80;;;;;;;19.12;37.18;101672.22;16112660;19;131054;-47
2023/05/21 05:00:41;;;;;;;2.03;1.48;;;;;;;19.13;37.15;101673.06;16113787;19;129533;-47
2023/05/21 05:06:03;;;;;;;3.50;2.00;;;;;;;19.12;37.18;101674.13;16114720;19;131095;-47
2023/05/21 05:11:25;;;;;;;2.10;1.42;;;;;;;19.12;37.62;101677.75;16110397;19;129361;-46
2023/05/21 05:16:47;;;;;;;2.10;1.48;;;;;;;19.12;37.29;101674.13;16113727;19;129715;-47
2023/05/21 05:22:09;;;;;;;3.67;1.73;;;;;;;19.11;37.72;101681.63;16112309;19;130669;-47
2023/05/21 05:27:33;;;;;;;2.25;1.55;;;;;;;19.10;37.43;101676.28;16110648;19;130857;-46
2023/05/21 05:32:58;;;;;;;2.33;1.87;;;;;;;19.08;37.67;101674.59;16109732;19;130464;-48
2023/05/21 05:38:20;;;;;;;3.20;1.70;;;;;;;19.09;37.37;101675.44;16107309;19;131163;-46
2023/05/21 05:43:42;;;;;;;2.72;1.83;;;;;;;19.08;37.89;101682.06;16109874;19;130498;-48
2023/05/21 05:49:04;;;;;;;2.58;1.77;;;;;;;19.08;37.80;101682.91;16110694;19;133177;-47
2023/05/21 05:54:26;;;;;;;2.20;1.70;;;;;;;19.07;37.86;101681.25;16110812;19;129819;-48
2023/05/21 05:59:48;;;;;;;3.40;1.95;;;;;;;19.07;37.82;101686.78;16109083;19;130692;-47
2023/05/21 06:05:10;;;;;;;4.07;2.17;;;;;;;19.06;37.84;101682.31;16117282;19;131082;-48
2023/05/21 06:10:32;;;;;;;5.05;1.73;;;;;;;19.07;37.67;101686.78;16124694;19;130220;-47
2023/05/21 06:15:54;;;;;;;1.90;1.77;;;;;;;19.08;37.61;101671.81;16120024;19;131227;-47
2023/05/21 06:21:16;;;;;;;2.60;2.10;;;;;;;19.08;37.83;101680.13;16122786;19;129944;-46
2023/05/21 06:26:38;;;;;;;5.53;1.95;;;;;;;19.11;38.01;101675.22;16124381;19;131112;-47
2023/05/21 06:32:00;;;;;;;4.03;2.40;;;;;;;19.11;38.43;101680.75;16120585;19;130279;-46
2023/05/21 06:37:22;;;;;;;8.45;2.80;;;;;;;19.16;38.56;101678.97;16118654;19;131215;-38
2023/05/21 06:42:47;;;;;;;3.90;2.47;;;;;;;19.20;38.25;101676.63;16119982;19;131622;-37
2023/05/21 06:48:08;;;;;;;6.00;2.38;;;;;;;19.25;38.65;101676.78;16116914;19;131105;-38
2023/05/21 06:53:30;;;;;;;7.45;2.90;;;;;;;19.31;38.58;101670.31;16119265;19;130626;-38
2023/05/21 06:58:53;;;;;;;8.02;2.45;;;;;;;19.39;38.79;101669.13;16116188;19;131039;-38
2023/05/21 07:04:15;;;;;;;4.22;3.10;;;;;;;19.48;38.77;101664.09;16115630;19;131177;-39
2023/05/21 07:09:37;;;;;;;3.28;2.60;;;;;;;19.55;38.85;101664.00;16120294;19;130256;-39
2023/05/21 07:14:58;;;;;;;3.92;2.80;;;;;;;19.61;39.18;101663.91;16118673;19;129749;-38
2023/05/21 07:20:20;;;;;;;3.92;2.58;;;;;;;19.66;38.62;101672.41;16115560;19;130044;-41
2023/05/21 07:25:42;;;;;;;8.82;3.33;;;;;;;19.67;38.79;101684.34;16116950;19;129462;-38
2023/05/21 07:31:04;;;;;;;9.10;2.70;;;;;;;19.71;39.10;101682.81;16114692;19;134214;-37
2023/05/21 07:36:26;;;;;;;6.78;3.10;;;;;;;19.79;39.08;101674.13;16111381;19;131043;-38
2023/05/21 07:41:48;;;;;;;6.25;3.22;;;;;;;19.89;38.87;101676.34;16117853;19;129582;-38
2023/05/21 07:47:10;;;;;;;4.25;2.60;;;;;;;19.98;39.20;101663.81;16115807;19;129709;-38
2023/05/21 07:52:32;;;;;;;3.17;2.40;;;;;;;20.07;39.26;101655.16;16113282;19;130976;-38
2023/05/21 07:57:55;;;;;;;7.43;2.72;;;;;;;20.13;39.50;101652.25;16115007;19;129781;-37
2023/05/21 08:03:17;;;;;;;8.13;2.65;;;;;;;20.20;39.33;101646.59;16109749;19;130647;-38
2023/05/21 08:08:40;;;;;;;11.73;3.10;;;;;;;20.25;38.72;101641.19;16112077;19;131823;-38
2023/05/21 08:14:01;;;;;;;4.35;2.67;;;;;;;20.32;39.28;101635.50;16116663;19;129558;-38
2023/05/21 08:19:23;;;;;;;6.20;3.25;;;;;;;20.37;39.25;101637.56;16113619;19;129577;-38
2023/05/21 08:24:45;;;;;;;6.82;2.53;;;;;;;20.42;39.25;101640.47;16113626;19;131557;-38
2023/05/21 08:30:10;;;;;;;8.27;3.53;;;;;;;20.46;39.10;101641.66;16113568;19;131676;-38
2023/05/21 08:35:32;;;;;;;8.63;3.10;;;;;;;20.46;38.85;101636.09;16113045;19;129655;-38
2023/05/21 08:40:54;;;;;;;6.75;2.88;;;;;;;20.47;39.13;101637.81;16113662;19;131000;-47
2023/05/21 08:46:20;;;;;;;10.80;3.30;;;;;;;20.52;39.34;101637.94;16112943;19;130071;-47
2023/05/21 08:51:46;;;;;;;6.97;2.90;;;;;;;20.56;38.92;101633.56;16115191;19;132263;-48
2023/05/21 08:57:08;;;;;;;6.90;2.70;;;;;;;20.60;39.42;101645.91;16114848;19;130224;-47
2023/05/21 09:02:34;;;;;;;9.02;2.65;;;;;;;20.63;38.98;101641.78;16109286;19;129385;-38
2023/05/21 09:08:05;;;;;;;10.10;3.10;;;;;;;20.65;39.20;101636.00;16108906;19;130490;-40
2023/05/21 09:13:30;;;;;;;8.73;2.97;;;;;;;20.66;39.09;101629.34;16110044;19;130958;-39
2023/05/21 09:18:52;;;;;;;;;;;;;;;20.65;39.44;101616.53;16102966;19;130925;-38
2023/05/21 09:24:14;;;;;;;5.95;3.28;;;;;;;20.66;39.16;101607.09;16111984;19;129689;-48
2023/05/21 09:29:36;;;;;;;8.73;3.03;;;;;;;20.65;39.40;101613.75;16110648;19;129911;-38
2023/05/21 09:35:06;;;;;;;9.90;3.60;;;;;;;20.67;39.26;101606.03;16103966;19;131127;-39
2023/05/21 09:40:28;;;;;;;11.52;3.70;;;;;;;20.66;39.27;101607.09;16115433;19;129513;-38
2023/05/21 09:45:52;;;;;;;6.82;4.05;;;;;;;20.64;39.47;101604.56;16119200;19;130177;-38
2023/05/21 09:51:16;;;;;;;9.50;3.80;;;;;;;20.66;39.27;101604.31;16117259;19;130301;-38
2023/05/21 09:56:38;;;;;;;10.95;4.05;;;;;;;20.64;39.69;101599.00;16122045;19;130898;-39
2023/05/21 10:02:01;;;;;;;8.10;3.80;;;;;;;20.62;39.81;101605.91;16122045;19;130345;-38
2023/05/21 10:07:25;;;;;;;15.93;4.32;;;;;;;20.59;39.68;101596.94;16121833;19;129586;-38
2023/05/21 10:12:53;;;;;;;12.33;4.13;;;;;;;20.62;39.89;101595.59;16121780;19;130433;-38
2023/05/21 10:18:17;;;;;;;10.68;5.03;;;;;;;20.63;40.26;101588.13;16122932;19;129291;-39
2023/05/21 10:23:41;;;;;;;15.25;4.70;;;;;;;20.62;40.52;101578.09;16124876;19;129610;-38
2023/05/21 10:29:03;;;;;;;14.07;4.60;;;;;;;20.64;40.23;101567.59;16119361;19;129269;-39
2023/05/21 10:34:27;;;;;;;9.38;4.72;;;;;;;20.65;40.34;101569.28;16125007;19;130233;-40
2023/05/21 10:39:51;;;;;;;17.77;5.10;;;;;;;20.65;40.55;101552.59;16122105;19;129388;-39
2023/05/21 10:45:33;;;;;;;16.00;5.10;;;;;;;20.66;40.86;101562.63;16121266;19;130388;-42
2023/05/21 10:51:07;;;;;;;10.05;4.97;;;;;;;20.68;40.60;101546.53;16117527;19;130656;-39
2023/05/21 10:56:45;;;;;;;10.63;4.20;;;;;;;20.69;40.91;101546.28;16125220;19;129382;-39
2023/05/21 11:02:10;;;;;;;12.95;4.75;;;;;;;20.70;40.76;101519.31;16123072;19;129616;-40
2023/05/21 11:07:56;;;;;;;7.33;4.47;;;;;;;20.71;40.63;101519.09;16119894;19;129634;-40
2023/05/21 11:13:20;;;;;;;11.80;4.82;;;;;;;20.70;40.65;101508.19;16120009;19;130103;-39
2023/05/21 11:18:45;;;;;;;5.40;4.13;;;;;;;20.68;40.43;101511.25;16116408;19;130147;-39
2023/05/21 11:24:09;;;;;;;7.67;5.00;;;;;;;20.67;40.81;101503.16;16116456;19;130337;-39
2023/05/21 11:29:54;;;;;;;13.35;4.60;;;;;;;20.68;41.06;101499.25;16116193;19;129523;-38
2023/05/21 11:35:16;;;;;;;7.38;4.88;;;;;;;20.68;40.78;101496.47;16117634;19;131021;-40
2023/05/21 11:40:52;;;;;;;7.75;5.07;;;;;;;20.69;40.89;101495.38;16116317;19;131218;-38
2023/05/21 11:46:14;;;;;;;7.80;5.53;;;;;;;20.69;40.69;101492.59;16115072;19;131085;-39
2023/05/21 11:51:36;;;;;;;7.07;4.80;;;;;;;20.67;41.14;101494.81;16115422;19;129527;-38
2023/05/21 11:57:02;;;;;;;7.13;5.38;;;;;;;20.67;40.94;101503.16;16119399;19;130095;-39
2023/05/21 12:02:28;;;;;;;7.60;5.10;;;;;;;20.69;40.87;101501.81;16115517;19;130072;-41
2023/05/21 12:07:50;;;;;;;9.65;5.53;;;;;;;20.73;41.18;101504.94;16117574;19;129931;-38
2023/05/21 12:13:13;;;;;;;8.02;5.30;;;;;;;20.74;41.01;101503.84;16113087;19;131615;-39
2023/05/21 12:18:36;;;;;;;9.75;5.78;;;;;;;20.75;40.79;101505.53;16115404;19;129436;-39
2023/05/21 12:23:58;;;;;;;10.55;5.53;;;;;;;20.77;40.72;101496.97;16117466;19;129770;-39
2023/05/21 12:29:22;;;;;;;8.48;5.68;;;;;;;20.74;41.10;101496.34;16114895;19;131435;-38
2023/05/21 12:34:44;;;;;;;7.05;5.82;;;;;;;20.76;41.07;101498.91;16111366;19;129175;-40
2023/05/21 12:40:07;;;;;;;9.82;6.35;;;;;;;20.77;41.15;101491.41;16116507;19;129689;-38
2023/05/21 12:45:31;;;;;;;7.38;5.78;;;;;;;20.78;40.96;101488.41;16116329;19;129704;-39
2023/05/21 12:50:53;;;;;;;8.88;5.75;;;;;;;20.77;41.28;101485.84;16111582;19;129977;-39
2023/05/21 12:56:15;;;;;;;7.45;5.90;;;;;;;20.77;41.24;101486.72;16113935;19;130841;-39
2023/05/21 13:01:37;;;;;;;9.20;6.00;;;;;;;20.79;41.12;101490.09;16114284;19;129318;-38
2023/05/21 13:06:58;;;;;;;12.30;6.20;;;;;;;20.79;41.67;101487.31;16111485;19;131068;-38
2023/05/21 13:12:24;;;;;;;10.40;6.15;;;;;;;20.79;41.44;101487.31;16115860;19;129707;-38
2023/05/21 13:17:46;;;;;;;9.45;6.63;;;;;;;20.80;41.54;101486.19;16131705;19;129105;-38
2023/05/21 13:23:11;;;;;;;9.25;6.78;;;;;;;20.80;41.61;101475.06;16126731;19;129784;-41
2023/05/21 13:28:32;;;;;;;9.07;6.00;;;;;;;20.79;41.59;101473.41;16125073;19;129603;-40
2023/05/21 13:33:54;;;;;;;8.40;6.40;;;;;;;20.81;41.70;101462.03;16128533;19;129824;-39
2023/05/21 13:39:16;;;;;;;8.57;7.30;;;;;;;20.80;41.61;101463.13;16124371;19;130934;-39
2023/05/21 13:44:38;;;;;;;8.13;6.43;;;;;;;20.78;41.85;101455.03;16124001;19;131712;-39
2023/05/21 13:50:00;;;;;;;8.30;7.15;;;;;;;20.79;41.79;101445.59;16122471;19;130303;-39
2023/05/21 13:55:22;;;;;;;10.80;6.93;;;;;;;20.79;41.96;101441.97;16119620;19;130653;-38
2023/05/21 14:00:44;;;;;;;9.70;7.25;;;;;;;20.78;42.38;101430.00;16114469;19;131485;-38
2023/05/21 14:06:07;;;;;;;11.20;7.15;;;;;;;20.79;42.18;101419.72;16120670;19;131565;-39
2023/05/21 14:11:30;;;;;;;8.82;6.85;;;;;;;20.80;42.04;101422.22;16126800;19;130493;-38
2023/05/21 14:16:52;;;;;;;11.38;7.55;;;;;;;20.79;42.28;101420.56;16122674;19;131112;-39
2023/05/21 14:22:14;;;;;;;10.75;7.78;;;;;;;20.75;42.66;101424.91;16126002;19;129928;-39
2023/05/21 14:27:36;;;;;;;9.63;8.25;;;;;;;20.77;42.44;101410.78;16121244;19;130439;-39
2023/05/21 14:32:59;;;;;;;10.07;7.65;;;;;;;20.75;42.34;101417.41;16119938;19;130954;-39
2023/05/21 14:38:21;;;;;;;8.90;7.45;;;;;;;20.76;42.34;101418.28;16118860;19;130885;-39
2023/05/21 14:43:43;;;;;;;8.80;7.40;;;;;;;20.77;42.65;101419.13;16121625;19;130767;-38
2023/05/21 14:49:04;;;;;;;9.68;7.82;;;;;;;20.77;42.65;101413.56;16124211;19;133668;-38
2023/05/21 14:54:26;;;;;;;9.30;7.60;;;;;;;20.78;42.37;101415.25;16117247;19;130648;-39
2023/05/21 14:59:48;;;;;;;8.93;7.20;;;;;;;20.79;42.63;101414.16;16122561;19;131290;-39
2023/05/21 15:05:10;;;;;;;8.57;7.25;;;;;;;20.81;42.77;101398.06;16120814;19;129960;-39
2023/05/21 15:10:32;;;;;;;9.43;7.15;;;;;;;20.81;42.83;101404.47;16119475;19;130539;-38
2023/05/21 15:15:54;;;;;;;9.27;7.25;;;;;;;20.82;42.90;101400.59;16113385;19;130363;-38
2023/05/21 15:21:16;;;;;;;9.50;7.03;;;;;;;20.81;42.72;101404.47;16118868;19;130897;-39
2023/05/21 15:26:38;;;;;;;10.00;7.63;;;;;;;20.82;42.86;101408.94;16120502;19;130920;-42
2023/05/21 15:32:03;;;;;;;7.82;6.68;;;;;;;20.84;42.46;101403.13;16115287;19;131170;-40
2023/05/21 15:37:25;;;;;;;9.48;7.05;;;;;;;20.83;42.89;101410.63;16114057;19;130150;-39
2023/05/21 15:42:47;;;;;;;10.30;7.28;;;;;;;20.84;42.71;101412.31;16115958;19;130680;-39
2023/05/21 15:48:11;;;;;;;8.18;7.13;;;;;;;20.84;43.06;101419.81;16110925;19;129358;-38
2023/05/21 15:53:33;;;;;;;10.98;7.68;;;;;;;20.83;42.86;101413.41;16115287;19;129392;-38
2023/05/21 15:58:57;;;;;;;9.05;7.10;;;;;;;20.84;43.01;101415.09;16116739;19;129605;-38
2023/05/21 16:04:19;;;;;;;8.82;6.93;;;;;;;20.85;43.15;101411.22;16115164;19;132264;-40
2023/05/21 16:09:41;;;;;;;8.93;6.63;;;;;;;20.85;43.02;101415.94;16115379;19;130146;-38
2023/05/21 16:15:04;;;;;;;8.93;6.80;;;;;;;20.85;43.33;101421.50;16114360;19;129708;-38
2023/05/21 16:20:26;;;;;;;9.25;6.53;;;;;;;20.83;42.86;101413.41;16106280;19;130535;-38
2023/05/21 16:25:48;;;;;;;10.25;7.10;;;;;;;20.85;43.20;101422.34;16105247;19;131094;-38
2023/05/21 16:31:11;;;;;;;11.55;6.90;;;;;;;20.85;43.33;101411.22;16111306;19;134218;-38
2023/05/21 16:36:34;;;;;;;27.73;8.27;;;;;;;20.85;43.41;101414.00;16104785;19;134024;-38
2023/05/21 16:41:58;;;;;;;19.73;12.10;;;;;;;20.84;44.11;101409.53;16104412;19;130571;-38
2023/05/21 16:47:20;;;;;;;29.40;17.20;;;;;;;20.87;43.98;101411.81;16107996;19;131501;-37
2023/05/21 16:52:42;;;;;;;43.45;21.67;;;;;;;20.90;44.44;101404.91;16110656;19;129520;-48
2023/05/21 16:58:05;;;;;;;58.80;28.20;;;;;;;20.94;44.69;101406.09;16112047;19;130201;-48
2023/05/21 17:03:28;;;;;;;65.60;33.80;;;;;;;20.98;45.20;101403.66;16114636;19;129320;-48
2023/05/21 17:08:50;;;;;;;62.65;33.42;;;;;;;21.02;45.15;101404.84;16108846;19;130461;-47
2023/05/21 17:14:12;;;;;;;67.03;34.58;;;;;;;21.03;45.64;101407.38;16110208;19;130148;-38
2023/05/21 17:19:47;;;;;;;60.93;30.53;;;;;;;21.07;45.39;101407.69;16110692;19;130227;-38
2023/05/21 17:25:09;;;;;;;50.10;28.15;;;;;;;21.06;45.51;101411.56;16105284;19;130082;-38
2023/05/21 17:30:31;;;;;;;47.03;25.80;;;;;;;21.08;45.53;101405.78;16110188;19;130808;-37
2023/05/21 17:35:55;;;;;;;35.63;21.05;;;;;;;21.08;45.50;101412.16;16103529;19;130651;-37
2023/05/21 17:41:17;;;;;;;41.05;21.17;;;;;;;21.06;45.56;101406.00;16105037;19;129598;-38
2023/05/21 17:46:39;;;;;;;31.30;19.73;;;;;;;21.05;45.26;101413.53;16110092;19;130444;-37
2023/05/21 17:52:03;;;;;;;33.97;19.58;;;;;;;21.01;45.24;101404.00;16109989;19;131369;-38
2023/05/21 17:57:25;;;;;;;34.60;16.70;;;;;;;21.00;45.29;101409.81;16108419;19;130897;-39
2023/05/21 18:02:47;;;;;;;33.42;16.88;;;;;;;20.96;45.58;101417.81;16123045;19;130388;-38
2023/05/21 18:08:09;;;;;;;24.42;15.45;;;;;;;20.94;45.54;101420.00;16120864;19;130923;-39
2023/05/21 18:13:31;;;;;;;26.77;14.15;;;;;;;20.94;45.50;101419.16;16123397;19;130199;-38
2023/05/21 18:18:53;;;;;;;24.60;13.80;;;;;;;20.93;45.26;101423.00;16117871;19;130337;-40
2023/05/21 18:24:15;;;;;;;31.15;14.43;;;;;;;20.96;45.49;101439.22;16121328;19;130653;-38
2023/05/21 18:29:37;;;;;;;22.58;12.57;;;;;;;20.98;45.94;101432.31;16117170;19;130052;-38
2023/05/21 18:34:59;;;;;;;22.40;11.43;;;;;;;20.99;45.81;101433.16;16116152;19;129552;-38
2023/05/21 18:40:21;;;;;;;22.65;11.32;;;;;;;21.01;46.03;101436.53;16121334;19;129764;-38
2023/05/21 18:45:45;;;;;;;22.70;10.63;;;;;;;21.04;45.72;101444.38;16119330;19;130691;-38
2023/05/21 18:51:07;;;;;;;37.22;11.13;;;;;;;21.06;45.77;101448.59;16113395;19;130784;-39
2023/05/21 18:56:28;;;;;;;31.45;9.88;;;;;;;21.08;45.74;101450.28;16123203;19;130950;-38
2023/05/21 19:01:51;;;;;;;33.65;9.60;;;;;;;21.09;45.70;101441.69;16114652;19;130228;-40
2023/05/21 19:07:14;;;;;;;32.72;9.60;;;;;;;21.12;45.60;101448.66;16113413;19;129714;-38
2023/05/21 19:12:38;;;;;;;27.48;8.95;;;;;;;21.13;45.91;101451.22;16115667;19;129705;-39
2023/05/21 19:18:00;;;;;;;20.27;8.70;;;;;;;21.13;45.65;101445.66;16120089;19;129981;-39
2023/05/21 19:23:23;;;;;;;20.50;9.38;;;;;;;21.14;45.56;101450.13;16118478;19;129613;-41
2023/05/21 19:28:46;;;;;;;19.10;8.23;;;;;;;21.14;45.69;101450.13;16119795;19;130460;-39
2023/05/21 19:34:09;;;;;;;15.02;7.47;;;;;;;21.16;45.72;101456.28;16117228;19;131116;-39
2023/05/21 19:39:41;;;;;;;14.45;8.60;;;;;;;21.17;45.79;101457.94;16115141;19;131901;-39
2023/05/21 19:45:05;;;;;;;16.08;7.50;;;;;;;21.17;45.51;101468.25;16117777;19;129922;-38
2023/05/21 19:50:27;;;;;;;18.77;7.20;;;;;;;21.16;45.43;101461.84;16107829;19;129942;-40
2023/05/21 19:55:49;;;;;;;13.75;7.43;;;;;;;21.17;45.49;101459.91;16099238;19;130415;-38
2023/05/21 20:01:15;;;;;;;19.60;7.20;;;;;;;21.17;45.30;101457.13;16118714;19;130826;-38
2023/05/21 20:06:37;;;;;;;14.63;6.35;;;;;;;21.16;45.25;101461.84;16114312;19;130607;-38
2023/05/21 20:11:59;;;;;;;14.05;5.68;;;;;;;21.15;45.44;101449.03;16111900;19;131065;-39
2023/05/21 20:17:21;;;;;;;13.50;6.55;;;;;;;21.15;45.10;101468.50;16116026;19;130942;-38
2023/05/21 20:22:43;;;;;;;21.63;6.22;;;;;;;21.14;45.27;101472.38;16107679;19;129969;-38
2023/05/21 20:28:06;;;;;;;24.60;6.65;;;;;;;21.11;45.32;101481.22;16113158;19;131498;-37
2023/05/21 20:33:33;;;;;;;21.77;5.95;;;;;;;21.10;45.11;101468.41;16114552;19;131230;-37
2023/05/21 20:38:56;;;;;;;14.48;6.20;;;;;;;21.07;45.06;101488.38;16114280;19;131074;-38
2023/05/21 20:44:17;;;;;;;16.13;5.82;;;;;;;21.08;45.34;101480.91;16111688;19;129536;-37
2023/05/21 20:49:39;;;;;;;13.27;5.90;;;;;;;21.05;45.26;101476.66;16114015;19;131542;-37
2023/05/21 20:55:03;;;;;;;19.80;6.13;;;;;;;21.03;45.86;101484.44;16113974;19;131828;-37
2023/05/21 21:00:25;;;;;;;26.20;6.68;;;;;;;21.01;45.61;101479.09;16114022;19;131111;-37
2023/05/21 21:05:47;;;;;;;17.63;6.50;;;;;;;20.99;45.43;101494.34;16114782;19;129647;-39
2023/05/21 21:11:09;;;;;;;17.35;6.30;;;;;;;20.96;45.28;101494.84;16113130;19;129893;-40
2023/05/21 21:16:31;;;;;;;14.10;5.53;;;;;;;20.94;45.57;101485.91;16114491;19;129274;-38
2023/05/21 21:21:53;;;;;;;15.07;5.50;;;;;;;20.90;45.31;101478.06;16115865;19;131182;-40
2023/05/21 21:27:15;;;;;;;13.63;5.55;;;;;;;20.88;44.89;101471.91;16111074;19;130538;-41
2023/05/21 21:32:40;;;;;;;14.65;5.45;;;;;;;20.87;45.32;101470.22;16115916;19;129317;-39
2023/05/21 21:38:03;;;;;;;10.95;5.05;;;;;;;20.85;45.03;101469.63;16124912;19;131246;-39
2023/05/21 21:43:25;;;;;;;14.18;5.30;;;;;;;20.84;44.98;101465.16;16124165;19;130731;-41
2023/05/21 21:48:47;;;;;;;18.63;5.93;;;;;;;20.82;45.13;101478.44;16125896;19;129569;-43
2023/05/21 21:54:09;;;;;;;10.88;5.18;;;;;;;20.80;44.75;101472.28;16124599;19;129091;-43
2023/05/21 21:59:32;;;;;;;16.73;5.60;;;;;;;20.76;44.55;101476.69;16127183;19;129947;-44
2023/05/21 22:04:54;;;;;;;13.63;5.30;;;;;;;20.72;44.69;101472.66;16128483;19;129811;-41
2023/05/21 22:10:17;;;;;;;11.32;4.72;;;;;;;20.69;44.74;101474.00;16122090;19;130719;-42
2023/05/21 22:15:39;;;;;;;11.45;4.60;;;;;;;20.68;44.26;101477.00;16127790;19;129436;-40
2023/05/21 22:21:01;;;;;;;8.45;4.57;;;;;;;20.66;44.45;101479.22;16120492;19;130430;-41
2023/05/21 22:26:23;;;;;;;11.05;4.80;;;;;;;20.64;44.47;101475.84;16127253;19;129506;-38
2023/05/21 22:31:45;;;;;;;9.45;5.25;;;;;;;20.62;44.38;101475.25;16120003;19;131628;-40
2023/05/21 22:37:07;;;;;;;19.67;4.50;;;;;;;20.60;44.35;101475.50;16121625;19;130760;-42
2023/05/21 22:42:29;;;;;;;7.15;4.57;;;;;;;20.57;44.45;101465.69;16122283;19;131385;-45
2023/05/21 22:47:51;;;;;;;12.88;4.75;;;;;;;20.56;44.03;101472.34;16119908;19;129466;-41
2023/05/21 22:53:13;;;;;;;12.77;4.95;;;;;;;20.54;43.91;101477.31;16119080;19;130094;-40
2023/05/21 22:58:35;;;;;;;10.15;4.80;;;;;;;20.52;44.26;101479.50;16122599;19;129790;-41
2023/05/21 23:03:57;;;;;;;7.80;3.78;;;;;;;20.52;44.09;101487.84;16120819;19;129923;-39
2023/05/21 23:09:19;;;;;;;9.20;4.45;;;;;;;20.50;44.08;101484.47;16119670;19;131195;-38
2023/05/21 23:14:41;;;;;;;11.07;4.45;;;;;;;20.49;43.94;101481.94;16117216;19;130229;-38
2023/05/21 23:20:03;;;;;;;9.48;4.57;;;;;;;20.47;43.75;101493.28;16114975;19;130861;-39
2023/05/21 23:25:25;;;;;;;8.57;4.38;;;;;;;20.47;43.77;101490.50;16119089;19;129987;-38
2023/05/21 23:30:47;;;;;;;9.23;4.18;;;;;;;20.45;43.72;101501.88;16117737;19;130758;-38
2023/05/21 23:36:09;;;;;;;7.13;4.07;;;;;;;20.45;44.14;101506.56;16115558;19;131888;-38
2023/05/21 23:41:31;;;;;;;8.80;4.00;;;;;;;20.43;44.09;101497.66;16117971;19;130703;-38
2023/05/21 23:46:53;;;;;;;12.05;4.70;;;;;;;20.41;43.78;101499.81;16119549;19;129611;-38
2023/05/21 23:52:17;;;;;;;8.88;4.07;;;;;;;20.39;44.03;101497.28;16118278;19;131085;-38
2023/05/21 23:57:39;;;;;;;8.48;4.45;;;;;;;20.39;43.77;101497.28;16111319;19;130116;-38
